createdAt,value
2022-12-13T00:01:00.412Z,-2.90
2022-12-13T00:02:02.286Z,-2.90
2022-12-13T00:03:04.086Z,-2.80
2022-12-13T00:04:07.509Z,-2.90
2022-12-13T00:05:09.969Z,-2.90
2022-12-13T00:06:12.857Z,-2.90
2022-12-13T00:07:14.664Z,-2.80
2022-12-13T00:08:16.864Z,-2.80
2022-12-13T00:09:19.749Z,-2.80
2022-12-13T00:10:21.487Z,-2.80
2022-12-13T00:11:23.324Z,-2.80
2022-12-13T00:12:25.029Z,-2.80
2022-12-13T00:13:27.104Z,-2.80
2022-12-13T00:14:28.830Z,-2.80
2022-12-13T00:15:30.572Z,-2.80
2022-12-13T00:16:32.394Z,-2.80
2022-12-13T00:17:34.634Z,-2.80
2022-12-13T00:18:36.391Z,-2.80
2022-12-13T00:19:38.210Z,-2.80
2022-12-13T00:20:40.889Z,-2.80
2022-12-13T00:21:42.630Z,-2.80
2022-12-13T00:22:44.358Z,-2.80
2022-12-13T00:23:47.325Z,-2.80
2022-12-13T00:24:49.113Z,-2.80
2022-12-13T00:25:50.961Z,-2.80
2022-12-13T00:26:55.695Z,-2.80
2022-12-13T00:27:57.405Z,-2.90
2022-12-13T00:29:01.116Z,-2.90
2022-12-13T00:30:02.983Z,-2.90
2022-12-13T00:31:43.094Z,-2.90
2022-12-13T00:32:27.331Z,-2.90
2022-12-13T00:33:29.928Z,-2.90
2022-12-13T00:34:31.724Z,-2.90
2022-12-13T00:35:34.241Z,-2.90
2022-12-13T00:36:35.988Z,-2.90
2022-12-13T00:37:37.783Z,-2.90
2022-12-13T00:38:39.631Z,-2.90
2022-12-13T00:39:41.594Z,-2.90
2022-12-13T00:40:43.354Z,-2.90
2022-12-13T00:41:45.501Z,-2.90
2022-12-13T00:42:47.430Z,-2.90
2022-12-13T00:43:49.168Z,-2.90
2022-12-13T00:44:50.878Z,-2.90
2022-12-13T00:45:52.880Z,-2.90
2022-12-13T00:46:54.764Z,-2.90
2022-12-13T00:47:56.531Z,-2.90
2022-12-13T00:49:01.061Z,-2.90
2022-12-13T00:50:04.551Z,-2.90
2022-12-13T00:51:08.237Z,-2.90
2022-12-13T00:52:09.943Z,-3.00
2022-12-13T00:53:11.741Z,-2.90
2022-12-13T00:54:13.486Z,-3.00
2022-12-13T00:55:15.697Z,-3.00
2022-12-13T00:56:21.678Z,-3.00
2022-12-13T00:57:23.403Z,-3.00
2022-12-13T00:58:25.173Z,-3.00
2022-12-13T00:59:26.969Z,-3.00
2022-12-13T01:00:28.686Z,-3.00
2022-12-13T01:01:33.156Z,-3.00
2022-12-13T01:02:34.966Z,-2.90
2022-12-13T01:03:37.256Z,-3.00
2022-12-13T01:04:39.054Z,-3.00
2022-12-13T01:06:13.844Z,-3.00
2022-12-13T01:07:03.018Z,-3.00
2022-12-13T01:08:04.897Z,-3.00
2022-12-13T01:09:12.926Z,-3.00
2022-12-13T01:10:14.845Z,-2.90
2022-12-13T01:11:17.194Z,-2.90
2022-12-13T01:12:19.218Z,-2.90
2022-12-13T01:13:21.723Z,-2.90
2022-12-13T01:14:23.486Z,-2.90
2022-12-13T01:15:25.207Z,-2.80
2022-12-13T01:16:27.156Z,-2.80
2022-12-13T01:17:29.083Z,-2.90
2022-12-13T01:18:31.770Z,-2.80
2022-12-13T01:19:33.805Z,-2.90
2022-12-13T01:20:35.647Z,-2.90
2022-12-13T01:21:37.376Z,-2.90
2022-12-13T01:22:39.119Z,-2.90
2022-12-13T01:23:41.668Z,-2.90
2022-12-13T01:24:43.747Z,-2.90
2022-12-13T01:25:45.441Z,-3.00
2022-12-13T01:26:47.678Z,-3.00
2022-12-13T01:27:49.399Z,-3.00
2022-12-13T01:28:51.133Z,-3.00
2022-12-13T01:29:52.898Z,-3.00
2022-12-13T01:31:00.363Z,-3.00
2022-12-13T01:32:02.145Z,-3.00
2022-12-13T01:33:03.891Z,-3.00
2022-12-13T01:34:19.747Z,-3.00
2022-12-13T01:35:21.500Z,-2.90
2022-12-13T01:36:28.021Z,-3.00
2022-12-13T01:37:30.090Z,-2.90
2022-12-13T01:38:32.267Z,-2.90
2022-12-13T01:39:39.872Z,-2.90
2022-12-13T01:40:50.371Z,-3.00
2022-12-13T01:41:59.495Z,-2.90
2022-12-13T01:43:02.607Z,-3.00
2022-12-13T01:44:53.234Z,-3.00
2022-12-13T01:45:55.151Z,-3.00
2022-12-13T01:46:57.029Z,-3.00
2022-12-13T01:48:03.039Z,-3.00
2022-12-13T01:49:19.219Z,-3.00
2022-12-13T01:50:32.460Z,-3.00
2022-12-13T01:51:42.636Z,-3.00
2022-12-13T01:52:45.884Z,-3.10
2022-12-13T01:53:50.024Z,-3.10
2022-12-13T01:54:55.700Z,-3.10
2022-12-13T01:56:23.342Z,-3.00
2022-12-13T01:57:25.817Z,-3.10
2022-12-13T01:58:28.347Z,-3.10
2022-12-13T01:59:30.421Z,-3.00
2022-12-13T02:00:36.000Z,-3.00
2022-12-13T02:01:39.732Z,-3.00
2022-12-13T02:02:41.818Z,-3.00
2022-12-13T02:03:44.487Z,-3.10
2022-12-13T02:04:57.067Z,-3.10
2022-12-13T02:06:08.913Z,-3.10
2022-12-13T02:07:23.169Z,-3.00
2022-12-13T02:08:26.311Z,-3.00
2022-12-13T02:09:28.646Z,-3.00
2022-12-13T02:10:32.283Z,-3.00
2022-12-13T02:11:37.058Z,-3.00
2022-12-13T02:12:41.368Z,-3.00
2022-12-13T02:13:43.154Z,-3.00
2022-12-13T02:14:45.099Z,-3.00
2022-12-13T02:16:22.131Z,-3.00
2022-12-13T02:17:49.743Z,-3.00
2022-12-13T02:18:57.665Z,-3.00
2022-12-13T02:20:21.671Z,-3.00
2022-12-13T02:21:40.415Z,-3.00
2022-12-13T02:23:04.682Z,-3.00
2022-12-13T02:24:28.438Z,-3.00
2022-12-13T02:26:09.218Z,-3.00
2022-12-13T02:27:42.551Z,-3.00
2022-12-13T02:29:30.312Z,-3.00
2022-12-13T02:30:38.939Z,-3.10
2022-12-13T02:31:46.729Z,-3.10
2022-12-13T02:33:35.367Z,-3.10
2022-12-13T02:34:42.895Z,-3.10
2022-12-13T02:35:47.745Z,-3.10
2022-12-13T02:36:57.517Z,-3.20
2022-12-13T02:38:15.386Z,-3.20
2022-12-13T02:39:44.025Z,-3.20
2022-12-13T02:41:09.358Z,-3.20
2022-12-13T02:42:21.417Z,-3.20
2022-12-13T02:43:33.682Z,-3.20
2022-12-13T02:44:45.442Z,-3.20
2022-12-13T02:45:50.479Z,-3.20
2022-12-13T02:47:03.638Z,-3.20
2022-12-13T02:48:08.042Z,-3.20
2022-12-13T02:49:10.942Z,-3.20
2022-12-13T02:50:14.775Z,-3.20
2022-12-13T02:51:18.571Z,-3.20
2022-12-13T02:52:24.964Z,-3.30
2022-12-13T02:53:27.490Z,-3.30
2022-12-13T02:54:30.990Z,-3.30
2022-12-13T02:55:35.831Z,-3.30
2022-12-13T02:56:37.587Z,-3.30
2022-12-13T02:57:41.389Z,-3.30
2022-12-13T02:58:49.118Z,-3.40
2022-12-13T02:59:52.640Z,-3.30
2022-12-13T03:01:29.774Z,-3.40
2022-12-13T03:02:48.085Z,-3.40
2022-12-13T03:04:09.481Z,-3.40
2022-12-13T03:05:50.967Z,-3.30
2022-12-13T03:07:54.855Z,-3.30
2022-12-13T03:09:12.410Z,-3.30
2022-12-13T03:10:22.805Z,-3.40
2022-12-13T03:11:49.795Z,-3.40
2022-12-13T03:13:29.197Z,-3.40
2022-12-13T03:14:35.338Z,-3.40
2022-12-13T03:15:39.981Z,-3.40
2022-12-13T03:16:44.604Z,-3.30
2022-12-13T03:18:15.725Z,-3.40
2022-12-13T03:19:17.591Z,-3.30
2022-12-13T03:20:24.565Z,-3.40
2022-12-13T03:21:26.660Z,-3.40
2022-12-13T03:22:28.367Z,-3.40
2022-12-13T03:23:30.629Z,-3.40
2022-12-13T03:24:32.425Z,-3.40
2022-12-13T03:25:34.200Z,-3.40
2022-12-13T03:26:38.245Z,-3.40
2022-12-13T03:27:40.025Z,-3.40
2022-12-13T03:28:42.009Z,-3.40
2022-12-13T03:29:43.740Z,-3.50
2022-12-13T03:30:45.525Z,-3.50
2022-12-13T03:31:47.308Z,-3.50
2022-12-13T03:32:49.049Z,-3.40
2022-12-13T03:33:50.828Z,-3.50
2022-12-13T03:35:00.607Z,-3.50
2022-12-13T03:36:03.458Z,-3.50
2022-12-13T03:37:05.552Z,-3.50
2022-12-13T03:38:07.693Z,-3.50
2022-12-13T03:39:09.475Z,-3.50
2022-12-13T03:40:11.680Z,-3.50
2022-12-13T03:41:16.314Z,-3.50
2022-12-13T03:42:18.229Z,-3.50
2022-12-13T03:43:21.797Z,-3.50
2022-12-13T03:44:24.481Z,-3.60
2022-12-13T03:45:33.420Z,-3.60
2022-12-13T03:46:35.583Z,-3.60
2022-12-13T03:47:37.386Z,-3.70
2022-12-13T03:48:39.212Z,-3.70
2022-12-13T03:49:40.967Z,-3.70
2022-12-13T03:50:42.735Z,-3.70
2022-12-13T03:51:44.866Z,-3.80
2022-12-13T03:52:47.601Z,-3.80
2022-12-13T03:53:49.327Z,-3.80
2022-12-13T03:54:51.105Z,-3.80
2022-12-13T03:55:53.125Z,-3.90
2022-12-13T03:56:54.851Z,-3.90
2022-12-13T03:57:56.779Z,-3.90
2022-12-13T03:58:58.568Z,-3.90
2022-12-13T04:00:00.369Z,-3.90
2022-12-13T04:01:02.138Z,-4.00
2022-12-13T04:02:03.961Z,-4.00
2022-12-13T04:03:05.999Z,-4.00
2022-12-13T04:04:07.795Z,-4.10
2022-12-13T04:05:09.753Z,-4.10
2022-12-13T04:06:12.180Z,-4.10
2022-12-13T04:07:22.224Z,-4.10
2022-12-13T04:08:24.595Z,-4.10
2022-12-13T04:09:26.375Z,-4.10
2022-12-13T04:10:28.354Z,-4.10
2022-12-13T04:11:48.740Z,-4.10
2022-12-13T04:13:09.388Z,-4.10
2022-12-13T04:14:21.700Z,-4.10
2022-12-13T04:15:24.706Z,-4.10
2022-12-13T04:16:26.495Z,-4.10
2022-12-13T04:17:28.279Z,-4.20
2022-12-13T04:18:30.197Z,-4.20
2022-12-13T04:19:31.953Z,-4.20
2022-12-13T04:20:33.729Z,-4.20
2022-12-13T04:21:35.567Z,-4.20
2022-12-13T04:22:37.354Z,-4.20
2022-12-13T04:23:39.058Z,-4.20
2022-12-13T04:24:40.795Z,-4.20
2022-12-13T04:25:43.955Z,-4.30
2022-12-13T04:26:46.027Z,-4.30
2022-12-13T04:27:47.786Z,-4.30
2022-12-13T04:28:54.424Z,-4.30
2022-12-13T04:29:57.317Z,-4.30
2022-12-13T04:30:59.127Z,-4.30
2022-12-13T04:32:00.858Z,-4.30
2022-12-13T04:33:03.516Z,-4.30
2022-12-13T04:34:05.390Z,-4.30
2022-12-13T04:35:07.466Z,-4.30
2022-12-13T04:36:09.277Z,-4.30
2022-12-13T04:37:11.357Z,-4.30
2022-12-13T04:38:14.880Z,-4.30
2022-12-13T04:39:21.999Z,-4.40
2022-12-13T04:40:24.759Z,-4.30
2022-12-13T04:41:26.530Z,-4.40
2022-12-13T04:42:36.309Z,-4.40
2022-12-13T04:43:38.023Z,-4.40
2022-12-13T04:44:43.408Z,-4.40
2022-12-13T04:45:47.713Z,-4.40
2022-12-13T04:46:49.538Z,-4.50
2022-12-13T04:47:51.335Z,-4.50
2022-12-13T04:48:53.081Z,-4.50
2022-12-13T04:49:55.236Z,-4.40
2022-12-13T04:50:56.978Z,-4.40
2022-12-13T04:52:02.994Z,-4.50
2022-12-13T04:53:04.752Z,-4.50
2022-12-13T04:54:23.284Z,-4.50
2022-12-13T04:55:25.659Z,-4.40
2022-12-13T04:56:27.440Z,-4.40
2022-12-13T04:57:29.209Z,-4.40
2022-12-13T04:58:31.432Z,-4.50
2022-12-13T04:59:33.210Z,-4.50
2022-12-13T05:00:35.197Z,-4.40
2022-12-13T05:01:36.980Z,-4.40
2022-12-13T05:02:38.980Z,-4.50
2022-12-13T05:03:40.776Z,-4.50
2022-12-13T05:04:42.547Z,-4.50
2022-12-13T05:05:44.304Z,-4.50
2022-12-13T05:06:46.007Z,-4.50
2022-12-13T05:07:47.951Z,-4.50
2022-12-13T05:08:49.826Z,-4.50
2022-12-13T05:09:51.559Z,-4.50
2022-12-13T05:10:54.611Z,-4.50
2022-12-13T05:12:00.989Z,-4.50
2022-12-13T05:13:03.480Z,-4.50
2022-12-13T05:14:05.226Z,-4.50
2022-12-13T05:15:07.559Z,-4.50
2022-12-13T05:16:09.795Z,-4.50
2022-12-13T05:17:11.573Z,-4.50
2022-12-13T05:18:13.279Z,-4.50
2022-12-13T05:19:15.019Z,-4.50
2022-12-13T05:20:16.886Z,-4.50
2022-12-13T05:21:18.635Z,-4.50
2022-12-13T05:22:21.332Z,-4.50
2022-12-13T05:23:24.967Z,-4.50
2022-12-13T05:24:26.785Z,-4.50
2022-12-13T05:25:28.792Z,-4.50
2022-12-13T05:26:30.521Z,-4.50
2022-12-13T05:27:32.407Z,-4.50
2022-12-13T05:28:34.446Z,-4.50
2022-12-13T05:29:36.421Z,-4.50
2022-12-13T05:30:42.512Z,-4.50
2022-12-13T05:31:44.977Z,-4.40
2022-12-13T05:32:46.970Z,-4.40
2022-12-13T05:33:49.133Z,-4.40
2022-12-13T05:34:50.941Z,-4.40
2022-12-13T05:35:57.814Z,-4.40
2022-12-13T05:37:01.847Z,-4.40
2022-12-13T05:38:04.385Z,-4.40
2022-12-13T05:39:06.119Z,-4.40
2022-12-13T05:40:29.652Z,-4.40
2022-12-13T05:41:34.314Z,-4.50
2022-12-13T05:42:38.824Z,-4.50
2022-12-13T05:43:43.311Z,-4.50
2022-12-13T05:44:45.400Z,-4.50
2022-12-13T05:45:47.157Z,-4.50
2022-12-13T05:46:48.978Z,-4.60
2022-12-13T05:47:50.888Z,-4.60
2022-12-13T05:48:52.681Z,-4.60
2022-12-13T05:49:54.411Z,-4.60
2022-12-13T05:51:10.930Z,-4.60
2022-12-13T05:52:20.740Z,-4.70
2022-12-13T05:53:30.599Z,-4.60
2022-12-13T05:54:32.976Z,-4.60
2022-12-13T05:55:34.716Z,-4.70
2022-12-13T05:56:36.775Z,-4.60
2022-12-13T05:57:39.197Z,-4.60
2022-12-13T05:58:41.239Z,-4.70
2022-12-13T05:59:42.971Z,-4.60
2022-12-13T06:00:44.722Z,-4.60
2022-12-13T06:01:46.560Z,-4.60
2022-12-13T06:02:48.325Z,-4.60
2022-12-13T06:03:50.205Z,-4.60
2022-12-13T06:04:52.068Z,-4.60
2022-12-13T06:05:53.763Z,-4.60
2022-12-13T06:06:55.512Z,-4.60
2022-12-13T06:07:58.326Z,-4.70
2022-12-13T06:09:00.693Z,-4.80
2022-12-13T06:10:09.624Z,-4.80
2022-12-13T06:11:12.789Z,-4.80
2022-12-13T06:12:37.494Z,-4.80
2022-12-13T06:13:49.817Z,-4.70
2022-12-13T06:14:51.518Z,-4.70
2022-12-13T06:16:01.405Z,-4.80
2022-12-13T06:17:04.552Z,-4.80
2022-12-13T06:18:06.301Z,-4.80
2022-12-13T06:19:08.383Z,-4.80
2022-12-13T06:20:23.856Z,-4.70
2022-12-13T06:21:26.456Z,-4.70
2022-12-13T06:22:28.882Z,-4.60
2022-12-13T06:23:31.652Z,-4.60
2022-12-13T06:24:33.640Z,-4.60
2022-12-13T06:25:36.976Z,-4.60
2022-12-13T06:26:38.691Z,-4.70
2022-12-13T06:27:40.466Z,-4.70
2022-12-13T06:28:42.381Z,-4.70
2022-12-13T06:29:44.214Z,-4.70
2022-12-13T06:30:46.117Z,-4.70
2022-12-13T06:31:48.094Z,-4.80
2022-12-13T06:32:50.247Z,-4.80
2022-12-13T06:33:52.017Z,-4.80
2022-12-13T06:34:53.734Z,-4.70
2022-12-13T06:35:59.099Z,-4.70
2022-12-13T06:37:01.514Z,-4.70
2022-12-13T06:38:03.739Z,-4.70
2022-12-13T06:39:15.594Z,-4.70
2022-12-13T06:40:22.833Z,-4.70
2022-12-13T06:41:30.563Z,-4.70
2022-12-13T06:42:33.800Z,-4.60
2022-12-13T06:43:36.167Z,-4.60
2022-12-13T06:44:37.886Z,-4.60
2022-12-13T06:45:40.738Z,-4.60
2022-12-13T06:46:42.910Z,-4.60
2022-12-13T06:47:44.695Z,-4.70
2022-12-13T06:48:46.679Z,-4.70
2022-12-13T06:49:48.465Z,-4.70
2022-12-13T06:50:50.165Z,-4.70
2022-12-13T06:51:51.943Z,-4.70
2022-12-13T06:52:53.700Z,-4.70
2022-12-13T06:53:56.396Z,-4.70
2022-12-13T06:55:02.963Z,-4.70
2022-12-13T06:56:14.787Z,-4.70
2022-12-13T06:57:16.534Z,-4.70
2022-12-13T06:58:18.256Z,-4.70
2022-12-13T06:59:20.886Z,-4.70
2022-12-13T07:00:24.247Z,-4.80
2022-12-13T07:01:27.828Z,-4.80
2022-12-13T07:02:39.443Z,-4.80
2022-12-13T07:03:41.682Z,-4.80
2022-12-13T07:04:43.403Z,-4.90
2022-12-13T07:05:45.183Z,-4.80
2022-12-13T07:06:46.944Z,-4.80
2022-12-13T07:07:48.926Z,-4.70
2022-12-13T07:08:53.597Z,-4.80
2022-12-13T07:09:55.385Z,-4.80
2022-12-13T07:10:57.670Z,-4.80
2022-12-13T07:11:59.939Z,-4.80
2022-12-13T07:13:01.745Z,-4.80
2022-12-13T07:14:03.571Z,-4.90
2022-12-13T07:15:05.824Z,-4.90
2022-12-13T07:16:07.811Z,-4.90
2022-12-13T07:17:10.813Z,-4.90
2022-12-13T07:18:13.134Z,-4.90
2022-12-13T07:19:24.024Z,-4.90
2022-12-13T07:20:26.334Z,-4.90
2022-12-13T07:21:29.142Z,-4.80
2022-12-13T07:22:34.814Z,-4.90
2022-12-13T07:23:38.722Z,-4.90
2022-12-13T07:24:40.471Z,-5.00
2022-12-13T07:25:42.208Z,-5.00
2022-12-13T07:26:43.967Z,-5.10
2022-12-13T07:27:45.683Z,-5.10
2022-12-13T07:28:52.897Z,-5.10
2022-12-13T07:29:57.991Z,-5.10
2022-12-13T07:31:05.810Z,-5.10
2022-12-13T07:32:07.618Z,-5.10
2022-12-13T07:33:12.755Z,-5.10
2022-12-13T07:34:24.036Z,-5.10
2022-12-13T07:35:25.750Z,-5.10
2022-12-13T07:36:27.519Z,-5.10
2022-12-13T07:37:30.794Z,-5.10
2022-12-13T07:38:36.769Z,-5.20
2022-12-13T07:39:38.515Z,-5.20
2022-12-13T07:40:40.886Z,-5.20
2022-12-13T07:41:42.755Z,-5.10
2022-12-13T07:42:54.982Z,-5.10
2022-12-13T07:43:56.775Z,-5.10
2022-12-13T07:44:58.498Z,-5.10
2022-12-13T07:46:01.927Z,-5.10
2022-12-13T07:47:03.803Z,-5.10
2022-12-13T07:48:06.718Z,-5.10
2022-12-13T07:49:08.452Z,-5.00
2022-12-13T07:50:24.863Z,-5.00
2022-12-13T07:51:27.283Z,-5.00
2022-12-13T07:52:29.262Z,-5.00
2022-12-13T07:53:33.359Z,-5.00
2022-12-13T07:54:35.649Z,-5.00
2022-12-13T07:55:38.075Z,-4.90
2022-12-13T07:56:39.858Z,-4.90
2022-12-13T07:57:41.792Z,-4.90
2022-12-13T07:58:44.033Z,-4.80
2022-12-13T07:59:45.756Z,-4.80
2022-12-13T08:00:47.617Z,-4.80
2022-12-13T08:01:49.419Z,-4.80
2022-12-13T08:02:51.202Z,-4.80
2022-12-13T08:03:52.989Z,-4.90
2022-12-13T08:04:55.406Z,-4.90
2022-12-13T08:06:08.706Z,-4.80
2022-12-13T08:07:11.130Z,-4.80
2022-12-13T08:08:12.897Z,-4.80
2022-12-13T08:09:14.698Z,-4.80
2022-12-13T08:10:16.488Z,-4.80
2022-12-13T08:11:18.312Z,-4.90
2022-12-13T08:12:22.548Z,-4.90
2022-12-13T08:13:24.764Z,-4.90
2022-12-13T08:14:26.661Z,-4.90
2022-12-13T08:15:29.102Z,-4.80
2022-12-13T08:16:31.002Z,-4.80
2022-12-13T08:17:32.760Z,-4.80
2022-12-13T08:18:34.858Z,-4.80
2022-12-13T08:19:36.614Z,-4.80
2022-12-13T08:20:38.446Z,-4.80
2022-12-13T08:22:01.321Z,-4.80
2022-12-13T08:23:03.444Z,-4.70
2022-12-13T08:24:05.580Z,-4.70
2022-12-13T08:25:07.978Z,-4.60
2022-12-13T08:26:09.782Z,-4.60
2022-12-13T08:27:11.497Z,-4.60
2022-12-13T08:28:13.217Z,-4.60
2022-12-13T08:29:32.109Z,-4.60
2022-12-13T08:30:35.204Z,-4.70
2022-12-13T08:31:37.086Z,-4.70
2022-12-13T08:32:38.893Z,-4.70
2022-12-13T08:33:41.223Z,-4.70
2022-12-13T08:34:43.261Z,-4.70
2022-12-13T08:35:45.278Z,-4.70
2022-12-13T08:36:47.053Z,-4.80
2022-12-13T08:37:48.826Z,-4.80
2022-12-13T08:38:53.634Z,-4.80
2022-12-13T08:39:55.374Z,-4.70
2022-12-13T08:40:59.091Z,-4.70
2022-12-13T08:42:01.110Z,-4.70
2022-12-13T08:43:19.509Z,-4.60
2022-12-13T08:44:26.842Z,-4.60
2022-12-13T08:45:28.727Z,-4.50
2022-12-13T08:46:30.613Z,-4.50
2022-12-13T08:47:35.599Z,-4.40
2022-12-13T08:48:44.842Z,-4.40
2022-12-13T08:49:47.211Z,-4.30
2022-12-13T08:50:48.995Z,-4.30
2022-12-13T08:51:50.714Z,-4.30
2022-12-13T08:52:52.854Z,-4.30
2022-12-13T08:54:10.015Z,-4.20
2022-12-13T08:55:14.964Z,-4.20
2022-12-13T08:56:18.730Z,-4.20
2022-12-13T08:57:20.716Z,-4.10
2022-12-13T08:58:22.485Z,-4.20
2022-12-13T08:59:25.312Z,-4.20
2022-12-13T09:00:27.157Z,-4.20
2022-12-13T09:01:28.989Z,-4.10
2022-12-13T09:02:30.837Z,-4.10
2022-12-13T09:03:40.306Z,-4.10
2022-12-13T09:04:42.440Z,-4.10
2022-12-13T09:05:44.333Z,-4.10
2022-12-13T09:06:46.260Z,-4.10
2022-12-13T09:07:48.102Z,-4.10
2022-12-13T09:08:52.594Z,-4.00
2022-12-13T09:09:54.918Z,-4.00
2022-12-13T09:11:11.456Z,-4.00
2022-12-13T09:12:29.999Z,-4.00
2022-12-13T09:13:34.884Z,-4.00
2022-12-13T09:14:46.814Z,-4.10
2022-12-13T09:15:48.833Z,-4.10
2022-12-13T09:16:51.744Z,-4.00
2022-12-13T09:17:54.453Z,-4.00
2022-12-13T09:18:56.338Z,-4.10
2022-12-13T09:19:58.838Z,-4.00
2022-12-13T09:21:10.197Z,-4.00
2022-12-13T09:22:14.751Z,-4.00
2022-12-13T09:23:23.468Z,-4.00
2022-12-13T09:24:26.215Z,-4.10
2022-12-13T09:25:27.929Z,-4.10
2022-12-13T09:26:39.271Z,-4.20
2022-12-13T09:27:41.056Z,-4.20
2022-12-13T09:28:42.814Z,-4.20
2022-12-13T09:29:44.681Z,-4.20
2022-12-13T09:30:46.421Z,-4.20
2022-12-13T09:31:52.876Z,-4.20
2022-12-13T09:32:56.599Z,-4.20
2022-12-13T09:33:58.289Z,-4.10
2022-12-13T09:35:00.140Z,-4.10
2022-12-13T09:36:06.007Z,-4.10
2022-12-13T09:37:09.020Z,-4.10
2022-12-13T09:38:10.765Z,-4.00
2022-12-13T09:39:13.224Z,-4.00
2022-12-13T09:40:25.774Z,-4.00
2022-12-13T09:42:00.936Z,-3.90
2022-12-13T09:43:12.776Z,-3.90
2022-12-13T09:44:30.600Z,-3.90
2022-12-13T09:45:37.099Z,-3.80
2022-12-13T09:46:46.966Z,-3.80
2022-12-13T09:47:49.785Z,-3.80
2022-12-13T09:49:01.156Z,-3.80
2022-12-13T09:50:15.141Z,-3.80
2022-12-13T09:51:28.777Z,-3.80
2022-12-13T09:52:40.706Z,-3.70
2022-12-13T09:53:43.196Z,-3.70
2022-12-13T09:54:48.649Z,-3.70
2022-12-13T09:55:52.430Z,-3.60
2022-12-13T09:56:56.542Z,-3.60
2022-12-13T09:58:00.924Z,-3.50
2022-12-13T09:59:03.601Z,-3.50
2022-12-13T10:00:10.926Z,-3.40
2022-12-13T10:01:12.962Z,-3.40
2022-12-13T10:02:28.702Z,-3.30
2022-12-13T10:03:30.502Z,-3.30
2022-12-13T10:04:32.236Z,-3.20
2022-12-13T10:05:39.460Z,-3.20
2022-12-13T10:06:41.942Z,-3.10
2022-12-13T10:07:43.809Z,-3.10
2022-12-13T10:08:58.910Z,-3.00
2022-12-13T10:10:01.549Z,-2.90
2022-12-13T10:11:03.692Z,-2.80
2022-12-13T10:12:05.747Z,-2.70
2022-12-13T10:13:18.069Z,-2.70
2022-12-13T10:14:40.276Z,-2.60
2022-12-13T10:15:46.734Z,-2.50
2022-12-13T10:16:54.430Z,-2.40
2022-12-13T10:17:56.461Z,-2.30
2022-12-13T10:18:58.354Z,-2.20
2022-12-13T10:20:00.512Z,-2.10
2022-12-13T10:21:07.676Z,-2.10
2022-12-13T10:22:16.612Z,-2.00
2022-12-13T10:24:54.995Z,-1.90
2022-12-13T10:26:02.782Z,-1.80
2022-12-13T10:27:17.642Z,-1.80
2022-12-13T10:28:31.411Z,-1.70
2022-12-13T10:29:33.173Z,-1.70
2022-12-13T10:30:42.105Z,-1.70
2022-12-13T10:31:51.823Z,-1.70
2022-12-13T10:32:55.102Z,-1.70
2022-12-13T10:33:57.635Z,-1.70
2022-12-13T10:34:59.717Z,-1.60
2022-12-13T10:36:07.595Z,-1.60
2022-12-13T10:37:27.397Z,-1.60
2022-12-13T10:38:32.523Z,-1.60
2022-12-13T10:39:41.169Z,-1.60
2022-12-13T10:40:45.615Z,-1.50
2022-12-13T10:41:49.092Z,-1.50
2022-12-13T10:43:08.975Z,-1.40
2022-12-13T10:44:24.269Z,-1.30
2022-12-13T10:45:26.016Z,-1.30
2022-12-13T10:46:31.229Z,-1.20
2022-12-13T10:47:44.271Z,-1.10
2022-12-13T10:48:51.832Z,-1.10
2022-12-13T10:49:59.637Z,-1.00
2022-12-13T10:51:05.386Z,-0.80
2022-12-13T10:52:30.894Z,-0.80
2022-12-13T10:53:42.443Z,-0.70
2022-12-13T10:54:50.708Z,-0.60
2022-12-13T10:55:56.143Z,-0.50
2022-12-13T10:57:04.810Z,-0.50
2022-12-13T10:58:09.665Z,-0.40
2022-12-13T10:59:32.395Z,-0.40
2022-12-13T11:00:44.814Z,-0.30
2022-12-13T11:01:47.103Z,-0.20
2022-12-13T11:02:55.794Z,-0.20
2022-12-13T11:04:02.862Z,-0.10
2022-12-13T11:05:25.507Z,-0.10
2022-12-13T11:06:29.201Z,0.00
2022-12-13T11:07:34.072Z,0.00
2022-12-13T11:08:36.136Z,0.10
2022-12-13T11:09:38.361Z,0.10
2022-12-13T11:10:40.481Z,0.10
2022-12-13T11:11:44.601Z,0.10
2022-12-13T11:12:46.747Z,0.10
2022-12-13T11:13:53.690Z,0.10
2022-12-13T11:15:02.713Z,0.10
2022-12-13T11:16:14.732Z,0.10
2022-12-13T11:17:21.702Z,0.10
2022-12-13T11:18:26.040Z,0.10
2022-12-13T11:19:37.462Z,0.10
2022-12-13T11:20:55.343Z,0.10
2022-12-13T11:21:57.316Z,0.10
2022-12-13T11:23:23.160Z,0.10
2022-12-13T11:24:33.062Z,0.10
2022-12-13T11:25:41.789Z,0.10
2022-12-13T11:26:52.527Z,0.10
2022-12-13T11:27:55.743Z,0.10
2022-12-13T11:29:15.977Z,0.00
2022-12-13T11:30:55.527Z,0.00
2022-12-13T11:32:25.019Z,0.00
2022-12-13T11:33:54.112Z,-0.10
2022-12-13T11:35:07.260Z,-0.10
2022-12-13T11:36:32.817Z,-0.20
2022-12-13T11:37:50.714Z,-0.20
2022-12-13T11:39:18.840Z,-0.30
2022-12-13T11:40:27.877Z,-0.40
2022-12-13T11:41:43.564Z,-0.40
2022-12-13T11:43:26.939Z,-0.40
2022-12-13T11:44:57.716Z,-0.50
2022-12-13T11:46:05.560Z,-0.50
2022-12-13T11:47:15.596Z,-0.50
2022-12-13T11:48:36.955Z,-0.50
2022-12-13T11:49:40.702Z,-0.50
2022-12-13T11:50:46.786Z,-0.50
2022-12-13T11:52:23.536Z,-0.50
2022-12-13T11:53:39.361Z,-0.50
2022-12-13T11:55:03.632Z,-0.60
2022-12-13T11:56:27.554Z,-0.60
2022-12-13T11:57:59.045Z,-0.60
2022-12-13T11:59:26.995Z,-0.60
2022-12-13T12:01:21.246Z,-0.70
2022-12-13T12:02:35.930Z,-0.80
2022-12-13T12:03:52.223Z,-0.80
2022-12-13T12:05:00.720Z,-0.90
2022-12-13T12:06:26.009Z,-0.90
2022-12-13T12:08:05.222Z,-0.90
2022-12-13T12:09:14.131Z,-0.90
2022-12-13T12:10:26.217Z,-1.00
2022-12-13T12:11:48.525Z,-0.90
2022-12-13T12:12:57.015Z,-1.00
2022-12-13T12:14:11.042Z,-1.00
2022-12-13T12:15:27.380Z,-1.00
2022-12-13T12:16:29.519Z,-1.10
2022-12-13T12:17:36.438Z,-1.10
2022-12-13T12:18:44.173Z,-1.10
2022-12-13T12:19:49.117Z,-1.10
2022-12-13T12:21:14.479Z,-1.10
2022-12-13T12:22:25.303Z,-1.10
2022-12-13T12:23:49.735Z,-1.10
2022-12-13T12:24:57.562Z,-1.10
2022-12-13T12:26:11.042Z,-1.10
2022-12-13T12:27:37.347Z,-1.10
2022-12-13T12:28:47.955Z,-1.10
2022-12-13T12:30:09.763Z,-1.10
2022-12-13T12:31:23.537Z,-1.10
2022-12-13T12:32:33.528Z,-1.10
2022-12-13T12:33:57.294Z,-1.10
2022-12-13T12:35:13.682Z,-1.10
2022-12-13T12:36:30.298Z,-1.10
2022-12-13T12:38:03.909Z,-1.20
2022-12-13T12:39:14.318Z,-1.20
2022-12-13T12:41:07.298Z,-1.30
2022-12-13T12:42:04.189Z,-1.30
2022-12-13T12:43:23.961Z,-1.30
2022-12-13T12:44:53.499Z,-1.30
2022-12-13T12:45:58.276Z,-1.30
2022-12-13T12:49:17.696Z,-1.50
2022-12-13T12:50:58.803Z,-1.50
2022-12-13T12:52:38.713Z,-1.50
2022-12-13T12:53:52.851Z,-1.50
2022-12-13T12:55:32.541Z,-1.50
2022-12-13T12:56:47.056Z,-1.60
2022-12-13T12:58:08.192Z,-1.60
2022-12-13T12:59:22.129Z,-1.60
2022-12-13T13:00:25.162Z,-1.60
2022-12-13T13:01:57.465Z,-1.60
2022-12-13T13:03:12.189Z,-1.70
2022-12-13T13:04:33.535Z,-1.70
2022-12-13T13:05:49.533Z,-1.80
2022-12-13T13:07:01.249Z,-1.80
2022-12-13T13:08:27.431Z,-1.80
2022-12-13T13:09:31.728Z,-1.90
2022-12-13T13:10:33.957Z,-1.90
2022-12-13T13:11:43.146Z,-1.90
2022-12-13T13:12:45.516Z,-1.90
2022-12-13T13:14:01.716Z,-1.90
2022-12-13T13:15:33.132Z,-1.90
2022-12-13T13:16:41.948Z,-2.00
2022-12-13T13:17:43.655Z,-2.00
2022-12-13T13:18:45.943Z,-2.00
2022-12-13T13:19:49.988Z,-2.00
2022-12-13T13:21:24.466Z,-2.00
2022-12-13T13:22:33.788Z,-2.00
2022-12-13T13:23:40.625Z,-2.10
2022-12-13T13:24:58.177Z,-2.10
2022-12-13T13:26:23.463Z,-2.10
2022-12-13T13:27:32.817Z,-2.10
2022-12-13T13:28:34.843Z,-2.10
2022-12-13T13:29:43.120Z,-2.10
2022-12-13T13:31:08.955Z,-2.10
2022-12-13T13:32:11.366Z,-2.20
2022-12-13T13:33:49.325Z,-2.20
2022-12-13T13:34:53.316Z,-2.20
2022-12-13T13:35:55.155Z,-2.20
2022-12-13T13:36:58.573Z,-2.20
2022-12-13T13:38:22.008Z,-2.30
2022-12-13T13:40:04.392Z,-2.30
2022-12-13T13:41:41.567Z,-2.30
2022-12-13T13:43:11.297Z,-2.30
2022-12-13T13:44:56.622Z,-2.30
2022-12-13T13:45:59.848Z,-2.30
2022-12-13T13:47:33.846Z,-2.30
2022-12-13T13:48:53.702Z,-2.40
2022-12-13T13:50:13.803Z,-2.40
2022-12-13T13:51:27.567Z,-2.40
2022-12-13T13:53:20.325Z,-2.40
2022-12-13T13:54:22.397Z,-2.40
2022-12-13T13:56:00.130Z,-2.40
2022-12-13T13:57:33.319Z,-2.40
2022-12-13T13:59:20.382Z,-2.40
2022-12-13T14:01:05.116Z,-2.50
2022-12-13T14:02:26.063Z,-2.50
2022-12-13T14:04:07.230Z,-2.50
2022-12-13T14:05:31.544Z,-2.60
2022-12-13T14:07:26.736Z,-2.60
2022-12-13T14:08:29.399Z,-2.70
2022-12-13T14:09:44.077Z,-2.70
2022-12-13T14:11:01.570Z,-2.70
2022-12-13T14:12:03.695Z,-2.70
2022-12-13T14:13:17.938Z,-2.80
2022-12-13T14:14:50.137Z,-2.80
2022-12-13T14:16:20.676Z,-2.80
2022-12-13T14:17:44.064Z,-2.90
2022-12-13T14:19:04.934Z,-2.90
2022-12-13T14:20:21.781Z,-3.00
2022-12-13T14:21:44.971Z,-3.00
2022-12-13T14:23:05.790Z,-3.10
2022-12-13T14:24:16.959Z,-3.20
2022-12-13T14:25:25.249Z,-3.20
2022-12-13T14:27:01.012Z,-3.20
2022-12-13T14:28:25.734Z,-3.20
2022-12-13T14:29:34.696Z,-3.30
2022-12-13T14:30:42.561Z,-3.30
2022-12-13T14:31:50.377Z,-3.30
2022-12-13T14:32:53.017Z,-3.40
2022-12-13T14:33:58.754Z,-3.40
2022-12-13T14:35:24.898Z,-3.40
2022-12-13T14:36:31.404Z,-3.50
2022-12-13T14:37:37.907Z,-3.60
2022-12-13T14:38:40.141Z,-3.60
2022-12-13T14:39:45.337Z,-3.60
2022-12-13T14:41:06.457Z,-3.60
2022-12-13T14:42:35.889Z,-3.70